createdAt,value
2022-08-26T08:45:36.285Z,38.80
2022-08-26T08:50:13.028Z,38.70
2022-08-26T08:54:46.607Z,39.30
2022-08-26T08:59:26.861Z,40.20
2022-08-26T09:04:08.606Z,40.90
2022-08-26T09:08:36.986Z,41.60
2022-08-26T09:13:13.749Z,42.10
2022-08-26T09:18:00.650Z,42.60
2022-08-26T09:22:47.865Z,42.40
2022-08-26T09:27:43.578Z,41.80
2022-08-26T09:32:24.879Z,41.60
2022-08-26T09:36:59.665Z,41.20
2022-08-26T09:41:42.554Z,41.50
2022-08-26T09:46:25.831Z,41.90
2022-08-26T09:51:08.576Z,42.30
2022-08-26T09:55:43.578Z,42.70
2022-08-26T10:00:38.719Z,42.60
2022-08-26T10:05:15.565Z,42.10
2022-08-26T10:09:54.645Z,41.90
2022-08-26T10:14:36.605Z,41.30
2022-08-26T10:19:13.205Z,40.60
2022-08-26T10:23:53.553Z,39.90
2022-08-26T10:28:36.545Z,39.70
2022-08-26T10:33:14.580Z,39.10
2022-08-26T10:37:52.532Z,37.60
2022-08-26T10:42:41.989Z,36.90
2022-08-26T10:47:15.887Z,36.90
2022-08-26T10:51:54.531Z,37.70
2022-08-26T10:56:40.534Z,39.10
2022-08-26T11:01:40.808Z,40.30
2022-08-26T11:06:36.966Z,41.30
2022-08-26T11:11:14.564Z,42.40
2022-08-26T11:16:16.568Z,42.70
2022-08-26T11:20:52.522Z,42.70
2022-08-26T11:25:30.825Z,43.20
2022-08-26T11:30:12.533Z,43.80
2022-08-26T11:35:04.526Z,44.30
2022-08-26T11:39:46.421Z,43.90
2022-08-26T11:44:25.506Z,42.60
2022-08-26T11:48:52.718Z,41.10
2022-08-26T11:53:27.504Z,38.70
2022-08-26T11:58:07.740Z,35.80
2022-08-26T12:02:42.490Z,33.30
2022-08-26T12:07:18.437Z,31.30
2022-08-26T12:12:00.483Z,29.70
2022-08-26T12:16:38.554Z,27.20
2022-08-26T12:21:20.535Z,24.90
2022-08-26T12:25:48.812Z,23.30
2022-08-26T12:30:27.554Z,22.40
2022-08-26T12:39:43.497Z,21.80
2022-08-26T12:44:17.469Z,21.80
2022-08-26T12:48:56.730Z,21.80
2022-08-26T12:53:36.526Z,21.80
2022-08-26T12:58:32.533Z,21.80
2022-08-26T13:03:06.717Z,21.90
2022-08-26T13:07:41.469Z,22.10
2022-08-26T13:12:15.613Z,22.20
2022-08-26T13:16:49.598Z,22.50
2022-08-26T13:21:19.734Z,22.70
2022-08-26T13:25:54.450Z,22.70
2022-08-26T13:30:29.580Z,22.80
2022-08-26T13:34:58.587Z,23.00
2022-08-26T13:39:33.443Z,23.20
2022-08-26T13:44:08.440Z,23.30
2022-08-26T13:48:42.468Z,23.20
2022-08-26T13:53:18.444Z,23.00
2022-08-26T13:57:52.411Z,22.90
2022-08-26T14:02:27.406Z,22.90
2022-08-26T14:06:54.613Z,22.90
2022-08-26T14:11:27.414Z,23.10
2022-08-26T14:16:01.502Z,23.40
2022-08-26T14:20:38.398Z,23.70
2022-08-26T14:25:12.443Z,24.00
2022-08-26T14:29:47.438Z,24.20
2022-08-26T14:34:22.383Z,24.20
2022-08-26T14:44:47.387Z,24.30
2022-08-26T14:49:14.657Z,24.40
2022-08-26T14:54:05.404Z,24.50
2022-08-26T14:58:38.386Z,24.50
2022-08-26T15:07:51.360Z,24.40
2022-08-26T15:13:05.385Z,24.30
2022-08-26T15:23:49.387Z,24.20
2022-08-26T15:28:16.544Z,24.00
2022-08-26T15:32:49.355Z,24.10
2022-08-26T15:37:23.375Z,24.30
2022-08-26T15:41:58.375Z,24.50
2022-08-26T15:46:39.476Z,24.80
2022-08-26T15:51:14.344Z,24.90
2022-08-26T15:55:41.521Z,25.10
2022-08-26T16:00:17.380Z,25.30
2022-08-26T16:04:51.349Z,25.30
2022-08-26T16:09:54.063Z,25.50
2022-08-26T16:14:28.359Z,25.70
2022-08-26T16:19:07.433Z,25.80
2022-08-26T16:23:45.012Z,25.80
2022-08-26T16:28:26.203Z,25.80
2022-08-26T16:33:02.465Z,25.70
2022-08-26T16:37:39.033Z,25.50
2022-08-26T16:42:20.339Z,25.40
2022-08-26T16:47:00.357Z,25.30
2022-08-26T16:51:37.893Z,25.10
2022-08-26T16:56:13.326Z,24.90
2022-08-26T17:00:47.340Z,24.80
2022-08-26T17:05:22.363Z,24.60
2022-08-26T17:09:55.320Z,24.50
2022-08-26T17:14:24.508Z,24.40
2022-08-26T17:18:57.318Z,24.20
2022-08-26T17:23:31.321Z,24.10
2022-08-26T17:28:04.320Z,24.00
2022-08-26T17:32:46.318Z,24.00
2022-08-26T17:37:13.227Z,23.90
2022-08-26T17:41:47.303Z,23.80
2022-08-26T17:46:27.546Z,23.70
2022-08-26T17:51:03.305Z,23.70
2022-08-26T17:55:37.318Z,23.50
2022-08-26T18:00:06.545Z,23.50
2022-08-26T18:04:40.327Z,23.30
2022-08-26T18:09:15.287Z,23.30
2022-08-26T18:13:49.277Z,23.20
2022-08-26T18:18:16.640Z,23.10
2022-08-26T18:22:50.280Z,23.10
2022-08-26T18:27:25.303Z,23.00
2022-08-26T18:31:59.283Z,22.90
2022-08-26T18:36:35.298Z,22.80
2022-08-26T18:41:10.257Z,22.70
2022-08-26T18:45:52.395Z,22.70
2022-08-26T18:50:26.307Z,22.60
2022-08-26T18:55:00.265Z,22.60
2022-08-26T18:59:30.236Z,22.70
2022-08-26T19:04:06.272Z,22.70
2022-08-26T19:08:44.606Z,22.70
2022-08-26T19:13:18.257Z,22.70
2022-08-26T19:17:51.273Z,22.70
2022-08-26T19:22:19.840Z,22.80
2022-08-26T19:26:57.593Z,22.80
2022-08-26T19:31:32.269Z,22.80
2022-08-26T19:36:06.634Z,22.80
2022-08-26T19:40:35.492Z,22.70
2022-08-26T19:45:24.736Z,22.60
2022-08-26T19:49:59.241Z,22.60
2022-08-26T19:54:33.247Z,22.50
2022-08-26T19:59:08.287Z,22.50
2022-08-26T20:03:42.272Z,22.50
2022-08-26T20:08:09.583Z,22.50
2022-08-26T20:12:57.224Z,22.50
2022-08-26T20:17:32.202Z,22.50
2022-08-26T20:22:06.230Z,22.50
2022-08-26T20:26:41.259Z,22.50
2022-08-26T20:31:15.248Z,22.50
2022-08-26T20:35:50.209Z,22.50
2022-08-26T20:40:24.330Z,22.50
2022-08-26T20:44:58.239Z,22.50
2022-08-26T20:49:31.228Z,22.50
2022-08-26T20:54:08.210Z,22.40
2022-08-26T20:58:42.188Z,22.40
2022-08-26T21:03:09.953Z,22.30
2022-08-26T21:07:43.186Z,22.30
2022-08-26T21:12:19.194Z,22.30
2022-08-26T21:16:54.238Z,22.30
2022-08-26T21:21:28.204Z,22.30
2022-08-26T21:26:01.201Z,22.30
2022-08-26T21:30:37.176Z,22.20
2022-08-26T21:35:04.265Z,22.30
2022-08-26T21:39:38.190Z,22.20
2022-08-26T21:44:12.193Z,22.20
2022-08-26T21:48:50.527Z,22.20
2022-08-26T21:53:24.169Z,22.10
2022-08-26T21:57:58.170Z,22.00
2022-08-26T22:02:25.754Z,21.90
2022-08-26T22:07:02.158Z,21.80
2022-08-26T22:11:36.270Z,21.80
2022-08-26T22:22:21.142Z,21.50
2022-08-26T22:26:58.170Z,21.40
2022-08-26T22:31:38.063Z,21.30
2022-08-26T22:36:12.236Z,21.30
2022-08-26T22:40:48.143Z,21.30
2022-08-26T22:45:18.146Z,21.20
2022-08-26T22:56:02.273Z,21.10
2022-08-26T23:11:30.260Z,21.00
2022-08-26T23:16:15.196Z,21.00
2022-08-26T23:20:49.122Z,21.00
2022-08-26T23:25:25.173Z,20.90
2022-08-26T23:30:00.119Z,20.90
2022-08-26T23:34:51.084Z,20.90
2022-08-26T23:39:17.996Z,20.90
2022-08-26T23:43:52.112Z,20.90
2022-08-26T23:48:27.082Z,20.90
2022-08-26T23:53:15.094Z,20.90
2022-08-26T23:57:49.092Z,20.90
